createdAt,value
2018-04-16T00:00:19.985Z,1005.79
2018-04-16T00:01:20.003Z,1005.80
2018-04-16T00:02:20.320Z,1005.74
2018-04-16T00:03:20.033Z,1005.76
2018-04-16T00:04:20.051Z,1005.73
2018-04-16T00:05:20.073Z,1005.70
2018-04-16T00:06:20.083Z,1005.69
2018-04-16T00:07:20.103Z,1005.69
2018-04-16T00:08:20.115Z,1005.66
2018-04-16T00:09:20.133Z,1005.63
2018-04-16T00:10:20.149Z,1005.62
2018-04-16T00:11:20.164Z,1005.64
2018-04-16T00:12:20.181Z,1005.59
2018-04-16T00:13:20.208Z,1005.62
2018-04-16T00:14:20.312Z,1005.64
2018-04-16T00:15:20.229Z,1005.60
2018-04-16T00:16:20.246Z,1005.60
2018-04-16T00:17:20.265Z,1005.62
2018-04-16T00:18:20.295Z,1005.65
2018-04-16T00:19:20.294Z,1005.70
2018-04-16T00:20:20.316Z,1005.66
2018-04-16T00:21:20.327Z,1005.70
2018-04-16T00:22:20.389Z,1005.66
2018-04-16T00:23:20.360Z,1005.63
2018-04-16T00:24:20.379Z,1005.62
2018-04-16T00:25:20.391Z,1005.60
2018-04-16T00:26:20.407Z,1005.59
2018-04-16T00:27:20.428Z,1005.57
2018-04-16T00:28:20.450Z,1005.58
2018-04-16T00:29:20.457Z,1005.60
2018-04-16T00:30:20.472Z,1005.55
2018-04-16T00:31:20.488Z,1005.56
2018-04-16T00:32:20.507Z,1005.54
2018-04-16T00:33:20.519Z,1005.59
2018-04-16T00:34:20.537Z,1005.57
2018-04-16T00:35:20.552Z,1005.61
2018-04-16T00:36:20.572Z,1005.61
2018-04-16T00:37:20.586Z,1005.60
2018-04-16T00:38:20.601Z,1005.61
2018-04-16T00:39:20.619Z,1005.60
2018-04-16T00:40:20.637Z,1005.62
2018-04-16T00:41:20.650Z,1005.62
2018-04-16T00:42:20.667Z,1005.61
2018-04-16T00:43:20.682Z,1005.61
2018-04-16T00:44:20.702Z,1005.58
2018-04-16T00:45:20.715Z,1005.62
2018-04-16T00:46:20.731Z,1005.60
2018-04-16T00:47:20.745Z,1005.60
2018-04-16T00:48:20.766Z,1005.56
2018-04-16T00:49:20.778Z,1005.61
2018-04-16T00:50:20.797Z,1005.61
2018-04-16T00:51:20.811Z,1005.62
2018-04-16T00:52:20.829Z,1005.63
2018-04-16T00:53:20.846Z,1005.64
2018-04-16T00:54:20.859Z,1005.63
2018-04-16T00:55:20.876Z,1005.63
2018-04-16T00:56:20.890Z,1005.58
2018-04-16T00:57:20.907Z,1005.58
2018-04-16T00:58:20.925Z,1005.62
2018-04-16T00:59:20.939Z,1005.62
2018-04-16T01:00:20.957Z,1005.64
2018-04-16T01:01:21.030Z,1005.66
2018-04-16T01:02:20.987Z,1005.63
2018-04-16T01:03:21.004Z,1005.66
2018-04-16T01:04:21.021Z,1005.70
2018-04-16T01:05:21.041Z,1005.71
2018-04-16T01:06:21.052Z,1005.72
2018-04-16T01:07:21.069Z,1005.73
2018-04-16T01:08:21.084Z,1005.68
2018-04-16T01:09:21.101Z,1005.72
2018-04-16T01:10:21.115Z,1005.75
2018-04-16T01:11:21.131Z,1005.77
2018-04-16T01:12:21.148Z,1005.76
2018-04-16T01:13:21.170Z,1005.75
2018-04-16T01:14:21.180Z,1005.79
2018-04-16T01:15:21.196Z,1005.78
2018-04-16T01:16:21.218Z,1005.77
2018-04-16T01:17:21.231Z,1005.76
2018-04-16T01:18:21.243Z,1005.74
2018-04-16T01:19:21.259Z,1005.79
2018-04-16T01:20:21.290Z,1005.76
2018-04-16T01:21:21.299Z,1005.74
2018-04-16T01:22:21.313Z,1005.75
2018-04-16T01:23:21.332Z,1005.72
2018-04-16T01:24:21.340Z,1005.75
2018-04-16T01:25:21.362Z,1005.82
2018-04-16T01:26:21.377Z,1005.82
2018-04-16T01:27:21.388Z,1005.81
2018-04-16T01:28:21.412Z,1005.79
2018-04-16T01:29:21.426Z,1005.82
2018-04-16T01:30:21.446Z,1005.83
2018-04-16T01:31:21.456Z,1005.82
2018-04-16T01:32:21.474Z,1005.78
2018-04-16T01:33:21.498Z,1005.83
2018-04-16T01:34:21.503Z,1005.86
2018-04-16T01:35:21.524Z,1005.83
2018-04-16T01:36:21.535Z,1005.85
2018-04-16T01:37:21.554Z,1005.84
2018-04-16T01:38:21.567Z,1005.86
2018-04-16T01:39:21.589Z,1005.83
2018-04-16T01:40:21.600Z,1005.82
2018-04-16T01:41:21.615Z,1005.81
2018-04-16T01:42:21.631Z,1005.80
2018-04-16T01:43:21.647Z,1005.86
2018-04-16T01:44:21.664Z,1005.83
2018-04-16T01:45:21.681Z,1005.82
2018-04-16T01:46:21.695Z,1005.83
2018-04-16T01:47:21.714Z,1005.83
2018-04-16T01:48:21.728Z,1005.87
2018-04-16T01:49:21.745Z,1005.86
2018-04-16T01:50:21.760Z,1005.85
2018-04-16T01:51:21.778Z,1005.83
2018-04-16T01:52:21.792Z,1005.83
2018-04-16T01:53:21.808Z,1005.85
2018-04-16T01:54:21.824Z,1005.88
2018-04-16T01:55:21.839Z,1005.90
2018-04-16T01:56:21.868Z,1005.90
2018-04-16T01:57:21.871Z,1005.94
2018-04-16T01:58:21.890Z,1005.92
2018-04-16T01:59:21.908Z,1005.94
2018-04-16T02:00:21.922Z,1005.96
2018-04-16T02:01:21.942Z,1005.95
2018-04-16T02:02:21.952Z,1005.94
2018-04-16T02:03:21.969Z,1005.94
2018-04-16T02:04:21.994Z,1005.94
2018-04-16T02:05:22.085Z,1005.96
2018-04-16T02:06:22.025Z,1005.97
2018-04-16T02:07:22.063Z,1005.96
2018-04-16T02:08:22.048Z,1005.99
2018-04-16T02:09:22.064Z,1005.97
2018-04-16T02:10:22.084Z,1006.00
2018-04-16T02:11:22.096Z,1005.98
2018-04-16T02:12:22.123Z,1005.97
2018-04-16T02:13:22.128Z,1005.94
2018-04-16T02:14:23.985Z,1005.96
2018-04-16T02:15:22.923Z,1005.95
2018-04-16T02:16:22.737Z,1005.92
2018-04-16T02:17:23.296Z,1005.97
2018-04-16T02:18:22.352Z,1005.93
2018-04-16T02:19:22.480Z,1005.92
2018-04-16T02:20:22.795Z,1005.93
2018-04-16T02:21:22.447Z,1005.92
2018-04-16T02:22:22.502Z,1005.92
2018-04-16T02:23:22.383Z,1005.94
2018-04-16T02:24:22.448Z,1005.93
2018-04-16T02:25:22.411Z,1005.89
2018-04-16T02:26:22.556Z,1005.88
2018-04-16T02:27:23.092Z,1005.87
2018-04-16T02:28:22.557Z,1005.88
2018-04-16T02:29:22.386Z,1005.87
2018-04-16T02:30:22.403Z,1005.88
2018-04-16T02:31:22.415Z,1005.89
2018-04-16T02:32:22.433Z,1005.90
2018-04-16T02:33:22.456Z,1005.88
2018-04-16T02:34:22.462Z,1005.87
2018-04-16T02:35:22.478Z,1005.86
2018-04-16T02:36:22.499Z,1005.87
2018-04-16T02:37:22.523Z,1005.88
2018-04-16T02:39:22.576Z,1005.88
2018-04-16T02:40:22.560Z,1005.88
2018-04-16T02:41:22.578Z,1005.88
2018-04-16T02:42:22.595Z,1005.85
2018-04-16T02:43:22.608Z,1005.91
2018-04-16T02:44:22.624Z,1005.91
2018-04-16T02:45:22.642Z,1005.94
2018-04-16T02:46:22.657Z,1005.97
2018-04-16T02:47:22.670Z,1005.96
2018-04-16T02:48:22.691Z,1005.98
2018-04-16T02:49:22.703Z,1005.98
2018-04-16T02:50:22.718Z,1005.98
2018-04-16T02:51:22.738Z,1005.99
2018-04-16T02:52:22.751Z,1006.01
2018-04-16T02:53:22.769Z,1005.97
2018-04-16T02:54:22.785Z,1006.00
2018-04-16T02:55:22.798Z,1006.04
2018-04-16T02:56:22.816Z,1006.03
2018-04-16T02:57:22.830Z,1006.05
2018-04-16T02:58:22.857Z,1006.05
2018-04-16T02:59:22.864Z,1006.05
2018-04-16T03:00:22.878Z,1006.08
2018-04-16T03:01:22.900Z,1006.05
2018-04-16T03:02:22.921Z,1006.03
2018-04-16T03:03:22.932Z,1006.04
2018-04-16T03:04:22.945Z,1006.04
2018-04-16T03:05:22.960Z,1006.06
2018-04-16T03:06:22.975Z,1006.07
2018-04-16T03:07:22.995Z,1006.04
2018-04-16T03:08:23.006Z,1006.07
2018-04-16T03:09:23.022Z,1006.09
2018-04-16T03:10:23.039Z,1006.04
2018-04-16T03:11:23.054Z,1006.02
2018-04-16T03:12:23.096Z,1006.07
2018-04-16T03:13:23.094Z,1006.07
2018-04-16T03:14:23.109Z,1006.07
2018-04-16T03:15:23.119Z,1006.09
2018-04-16T03:16:23.138Z,1006.10
2018-04-16T03:17:23.149Z,1006.11
2018-04-16T03:18:23.166Z,1006.11
2018-04-16T03:19:23.183Z,1006.12
2018-04-16T03:20:23.197Z,1006.15
2018-04-16T03:21:23.212Z,1006.13
2018-04-16T03:22:23.227Z,1006.09
2018-04-16T03:23:23.244Z,1006.05
2018-04-16T03:24:23.263Z,1006.08
2018-04-16T03:25:23.278Z,1006.09
2018-04-16T03:26:23.294Z,1006.07
2018-04-16T03:27:23.307Z,1006.07
2018-04-16T03:28:23.322Z,1006.06
2018-04-16T03:29:23.339Z,1006.09
2018-04-16T03:30:23.356Z,1006.08
2018-04-16T03:31:23.371Z,1006.09
2018-04-16T03:32:23.389Z,1006.07
2018-04-16T03:33:23.405Z,1006.12
2018-04-16T03:34:23.418Z,1006.09
2018-04-16T03:35:23.432Z,1006.11
2018-04-16T03:36:23.457Z,1006.12
2018-04-16T03:37:23.476Z,1006.14
2018-04-16T03:38:23.491Z,1006.15
2018-04-16T03:39:23.498Z,1006.13
2018-04-16T03:40:23.512Z,1006.13
2018-04-16T03:41:23.530Z,1006.16
2018-04-16T03:42:23.543Z,1006.16
2018-04-16T03:43:23.558Z,1006.21
2018-04-16T03:44:23.576Z,1006.20
2018-04-16T03:45:23.590Z,1006.22
2018-04-16T03:46:23.698Z,1006.22
2018-04-16T03:47:23.629Z,1006.27
2018-04-16T03:48:23.643Z,1006.30
2018-04-16T03:49:23.964Z,1006.29
2018-04-16T03:50:23.752Z,1006.27
2018-04-16T03:51:23.730Z,1006.24
2018-04-16T03:52:23.704Z,1006.25
2018-04-16T03:53:23.716Z,1006.26
2018-04-16T03:54:23.732Z,1006.28
2018-04-16T03:55:23.750Z,1006.26
2018-04-16T03:56:23.762Z,1006.29
2018-04-16T03:57:23.780Z,1006.28
2018-04-16T03:58:23.795Z,1006.34
2018-04-16T03:59:23.814Z,1006.30
2018-04-16T04:00:23.832Z,1006.32
2018-04-16T04:01:23.845Z,1006.34
2018-04-16T04:02:23.860Z,1006.36
2018-04-16T04:03:23.875Z,1006.36
2018-04-16T04:04:23.887Z,1006.37
2018-04-16T04:05:23.904Z,1006.38
2018-04-16T04:06:23.925Z,1006.36
2018-04-16T04:07:23.946Z,1006.38
2018-04-16T04:08:23.954Z,1006.37
2018-04-16T04:09:23.970Z,1006.35
2018-04-16T04:10:24.005Z,1006.35
2018-04-16T04:11:23.998Z,1006.42
2018-04-16T04:12:24.013Z,1006.41
2018-04-16T04:13:24.040Z,1006.39
2018-04-16T04:14:24.048Z,1006.43
2018-04-16T04:15:24.061Z,1006.45
2018-04-16T04:16:24.075Z,1006.46
2018-04-16T04:17:24.090Z,1006.46
2018-04-16T04:18:24.111Z,1006.45
2018-04-16T04:19:24.123Z,1006.44
2018-04-16T04:20:24.138Z,1006.48
2018-04-16T04:21:24.159Z,1006.50
2018-04-16T04:22:24.169Z,1006.48
2018-04-16T04:23:24.240Z,1006.50
2018-04-16T04:24:24.249Z,1006.49
2018-04-16T04:25:24.217Z,1006.53
2018-04-16T04:26:24.233Z,1006.54
2018-04-16T04:27:24.247Z,1006.55
2018-04-16T04:28:24.276Z,1006.57
2018-04-16T04:29:24.280Z,1006.57
2018-04-16T04:30:24.296Z,1006.53
2018-04-16T04:31:24.313Z,1006.54
2018-04-16T04:32:24.328Z,1006.57
2018-04-16T04:33:24.350Z,1006.54
2018-04-16T04:34:24.366Z,1006.54
2018-04-16T04:35:24.373Z,1006.57
2018-04-16T04:36:24.388Z,1006.58
2018-04-16T04:37:24.404Z,1006.58
2018-04-16T04:38:24.419Z,1006.60
2018-04-16T04:39:24.440Z,1006.63
2018-04-16T04:40:24.456Z,1006.66
2018-04-16T04:41:24.473Z,1006.68
2018-04-16T04:42:24.487Z,1006.64
2018-04-16T04:43:24.504Z,1006.64
2018-04-16T04:44:24.514Z,1006.67
2018-04-16T04:45:24.532Z,1006.70
2018-04-16T04:46:24.543Z,1006.76
2018-04-16T04:47:24.563Z,1006.76
2018-04-16T04:48:24.579Z,1006.74
2018-04-16T04:49:24.609Z,1006.76
2018-04-16T04:50:24.624Z,1006.78
2018-04-16T04:51:24.620Z,1006.75
2018-04-16T04:52:24.642Z,1006.77
2018-04-16T04:53:24.667Z,1006.75
2018-04-16T04:54:24.686Z,1006.74
2018-04-16T04:55:24.686Z,1006.75
2018-04-16T04:56:24.760Z,1006.75
2018-04-16T04:57:24.718Z,1006.75
2018-04-16T04:58:24.737Z,1006.75
2018-04-16T04:59:24.751Z,1006.73
2018-04-16T05:00:24.768Z,1006.80
2018-04-16T05:01:24.778Z,1006.76
2018-04-16T05:02:24.806Z,1006.82
2018-04-16T05:03:24.814Z,1006.84
2018-04-16T05:04:24.837Z,1006.84
2018-04-16T05:05:24.840Z,1006.87
2018-04-16T05:06:24.858Z,1006.87
2018-04-16T05:07:24.868Z,1006.82
2018-04-16T05:08:24.921Z,1006.85
2018-04-16T05:09:24.903Z,1006.88
2018-04-16T05:10:24.916Z,1006.90
2018-04-16T05:11:24.931Z,1006.91
2018-04-16T05:12:24.947Z,1006.91
2018-04-16T05:13:24.963Z,1006.90
2018-04-16T05:14:24.981Z,1006.92
2018-04-16T05:15:24.994Z,1006.95
2018-04-16T05:16:25.011Z,1006.97
2018-04-16T05:17:25.024Z,1006.95
2018-04-16T05:18:25.046Z,1006.95
2018-04-16T05:19:25.054Z,1007.00
2018-04-16T05:20:25.079Z,1007.06
2018-04-16T05:21:25.094Z,1007.02
2018-04-16T05:22:25.130Z,1007.03
2018-04-16T05:23:25.124Z,1007.03
2018-04-16T05:24:25.138Z,1007.03
2018-04-16T05:25:25.191Z,1007.07
2018-04-16T05:26:25.174Z,1007.04
2018-04-16T05:27:25.182Z,1007.07
2018-04-16T05:28:25.251Z,1007.05
2018-04-16T05:29:25.242Z,1007.12
2018-04-16T05:30:25.264Z,1007.09
2018-04-16T05:31:25.254Z,1007.10
2018-04-16T05:32:25.274Z,1007.16
2018-04-16T05:33:25.329Z,1007.16
2018-04-16T05:34:25.299Z,1007.18
2018-04-16T05:35:25.313Z,1007.23
2018-04-16T05:36:25.323Z,1007.25
2018-04-16T05:37:25.349Z,1007.30
2018-04-16T05:38:25.355Z,1007.34
2018-04-16T05:39:25.370Z,1007.37
2018-04-16T05:40:25.408Z,1007.41
2018-04-16T05:41:25.407Z,1007.44
2018-04-16T05:42:25.447Z,1007.39
2018-04-16T05:43:25.432Z,1007.42
2018-04-16T05:44:25.463Z,1007.46
2018-04-16T05:45:25.462Z,1007.45
2018-04-16T05:46:25.484Z,1007.45
2018-04-16T05:47:25.501Z,1007.46
2018-04-16T05:48:25.508Z,1007.48
2018-04-16T05:49:25.526Z,1007.49
2018-04-16T05:50:25.543Z,1007.55
2018-04-16T05:51:25.557Z,1007.56
2018-04-16T05:52:25.604Z,1007.60
2018-04-16T05:53:25.589Z,1007.60
2018-04-16T05:54:25.608Z,1007.62
2018-04-16T05:55:25.619Z,1007.58
2018-04-16T05:56:25.633Z,1007.58
2018-04-16T05:57:25.652Z,1007.60
2018-04-16T05:58:25.671Z,1007.63
2018-04-16T05:59:25.696Z,1007.61
2018-04-16T06:00:25.727Z,1007.61
2018-04-16T06:01:25.722Z,1007.70
2018-04-16T06:02:25.746Z,1007.70
2018-04-16T06:03:25.745Z,1007.72
2018-04-16T06:04:25.761Z,1007.74
2018-04-16T06:05:25.777Z,1007.80
2018-04-16T06:06:25.789Z,1007.84
2018-04-16T06:07:25.823Z,1007.84
2018-04-16T06:08:25.830Z,1007.85
2018-04-16T06:09:25.839Z,1007.86
2018-04-16T06:10:25.860Z,1007.80
2018-04-16T06:11:25.873Z,1007.82
2018-04-16T06:12:25.880Z,1007.82
2018-04-16T06:13:25.895Z,1007.85
2018-04-16T06:14:25.915Z,1007.85
2018-04-16T06:15:25.928Z,1007.83
2018-04-16T06:16:25.949Z,1007.82
2018-04-16T06:17:25.961Z,1007.83
2018-04-16T06:18:25.976Z,1007.85
2018-04-16T06:19:26.016Z,1007.90
2018-04-16T06:20:26.014Z,1007.82
2018-04-16T06:21:26.027Z,1007.83
2018-04-16T06:22:26.041Z,1007.81
2018-04-16T06:23:26.055Z,1007.78
2018-04-16T06:24:26.077Z,1007.83
2018-04-16T06:25:26.089Z,1007.82
2018-04-16T06:26:26.105Z,1007.83
2018-04-16T06:27:26.186Z,1007.77
2018-04-16T06:28:26.295Z,1007.79
2018-04-16T06:29:26.152Z,1007.82
2018-04-16T06:30:26.174Z,1007.82
2018-04-16T06:31:26.187Z,1007.85
2018-04-16T06:32:26.203Z,1007.84
2018-04-16T06:33:26.241Z,1007.86
2018-04-16T06:34:26.239Z,1007.82
2018-04-16T06:35:26.252Z,1007.84
2018-04-16T06:36:26.277Z,1007.78
2018-04-16T06:37:26.282Z,1007.85
2018-04-16T06:38:26.297Z,1007.88
2018-04-16T06:39:26.314Z,1007.89
2018-04-16T06:40:26.335Z,1007.96
2018-04-16T06:41:26.350Z,1007.98
2018-04-16T06:42:26.394Z,1007.95
2018-04-16T06:43:26.381Z,1007.93
2018-04-16T06:44:26.398Z,1008.00
2018-04-16T06:45:26.411Z,1007.97
2018-04-16T06:46:26.431Z,1008.01
2018-04-16T06:47:26.442Z,1007.97
2018-04-16T06:48:26.459Z,1007.99
2018-04-16T06:49:26.479Z,1007.99
2018-04-16T06:50:26.496Z,1008.02
2018-04-16T06:51:26.509Z,1008.03
2018-04-16T06:52:26.526Z,1008.04
2018-04-16T06:53:26.543Z,1007.98
2018-04-16T06:54:26.566Z,1008.03
2018-04-16T06:55:27.593Z,1008.04
2018-04-16T06:56:26.637Z,1008.08
2018-04-16T06:57:26.606Z,1008.08
2018-04-16T06:58:27.052Z,1008.05
2018-04-16T06:59:26.645Z,1008.09
2018-04-16T07:00:26.673Z,1008.11
2018-04-16T07:01:26.673Z,1008.13
2018-04-16T07:02:26.699Z,1008.10
2018-04-16T07:03:26.734Z,1008.14
2018-04-16T07:04:26.730Z,1008.15
2018-04-16T07:05:26.740Z,1008.16
2018-04-16T07:06:26.755Z,1008.17
2018-04-16T07:07:26.769Z,1008.19
2018-04-16T07:08:26.792Z,1008.22
2018-04-16T07:09:26.804Z,1008.26
2018-04-16T07:10:26.820Z,1008.27
2018-04-16T07:11:27.023Z,1008.27
2018-04-16T07:12:26.859Z,1008.31
2018-04-16T07:13:26.867Z,1008.31
2018-04-16T07:14:26.884Z,1008.34
2018-04-16T07:15:26.899Z,1008.31
2018-04-16T07:16:26.918Z,1008.35
2018-04-16T07:17:27.194Z,1008.37
2018-04-16T07:18:26.948Z,1008.29
2018-04-16T07:19:26.971Z,1008.31
2018-04-16T07:20:26.988Z,1008.34
2018-04-16T07:21:27.012Z,1008.31
2018-04-16T07:22:27.016Z,1008.30
2018-04-16T07:23:27.032Z,1008.30
2018-04-16T07:24:27.063Z,1008.29
2018-04-16T07:25:27.067Z,1008.33
2018-04-16T07:26:27.113Z,1008.33
2018-04-16T07:27:27.125Z,1008.32
2018-04-16T07:28:27.155Z,1008.34
2018-04-16T07:29:28.303Z,1008.33
2018-04-16T07:30:27.148Z,1008.36
2018-04-16T07:31:27.176Z,1008.42
2018-04-16T07:32:27.184Z,1008.42
2018-04-16T07:33:27.199Z,1008.47
2018-04-16T07:34:27.221Z,1008.47
2018-04-16T07:35:27.235Z,1008.47
2018-04-16T07:36:27.287Z,1008.46
2018-04-16T07:37:27.283Z,1008.49
2018-04-16T07:38:27.342Z,1008.55
2018-04-16T07:39:27.310Z,1008.49
2018-04-16T07:40:27.317Z,1008.54
2018-04-16T07:41:27.330Z,1008.56
2018-04-16T07:42:27.346Z,1008.56
2018-04-16T07:43:27.364Z,1008.59
2018-04-16T07:44:27.380Z,1008.60
2018-04-16T07:45:27.397Z,1008.66
2018-04-16T07:46:27.422Z,1008.64
2018-04-16T07:47:27.441Z,1008.68
2018-04-16T07:48:27.453Z,1008.65
2018-04-16T07:49:27.465Z,1008.73
2018-04-16T07:50:27.488Z,1008.70
2018-04-16T07:51:27.509Z,1008.72
2018-04-16T07:52:27.514Z,1008.70
2018-04-16T07:53:27.531Z,1008.75
2018-04-16T07:54:27.548Z,1008.76
2018-04-16T07:55:27.599Z,1008.73
2018-04-16T07:56:27.590Z,1008.78
2018-04-16T07:57:27.595Z,1008.80
2018-04-16T07:58:28.259Z,1008.76
2018-04-16T07:59:27.632Z,1008.78
2018-04-16T08:00:27.643Z,1008.78
2018-04-16T08:01:27.688Z,1008.82
2018-04-16T08:02:27.693Z,1008.83
2018-04-16T08:03:27.696Z,1008.82
2018-04-16T08:04:27.730Z,1008.83
2018-04-16T08:05:27.770Z,1008.89
2018-04-16T08:06:27.977Z,1008.90
2018-04-16T08:07:27.837Z,1008.91
2018-04-16T08:08:27.785Z,1008.91
2018-04-16T08:09:27.805Z,1008.92
2018-04-16T08:10:27.804Z,1008.98
2018-04-16T08:11:27.968Z,1008.94
2018-04-16T08:12:27.847Z,1008.94
2018-04-16T08:14:27.873Z,1008.97
2018-04-16T08:15:27.890Z,1008.99
2018-04-16T08:16:27.913Z,1009.06
2018-04-16T08:17:27.926Z,1009.02
2018-04-16T08:18:27.955Z,1009.05
2018-04-16T08:19:27.954Z,1009.06
2018-04-16T08:20:27.972Z,1009.04
2018-04-16T08:21:27.988Z,1009.05
2018-04-16T08:22:28.011Z,1009.07
2018-04-16T08:23:28.024Z,1009.10
2018-04-16T08:24:28.040Z,1009.09
2018-04-16T08:25:28.064Z,1009.10
2018-04-16T08:26:28.073Z,1009.13
2018-04-16T08:27:28.095Z,1009.13
2018-04-16T08:28:28.105Z,1009.19
2018-04-16T08:29:28.123Z,1009.18
2018-04-16T08:30:28.141Z,1009.14
2018-04-16T08:31:28.157Z,1009.12
2018-04-16T08:32:28.181Z,1009.13
2018-04-16T08:33:28.191Z,1009.13
2018-04-16T08:34:28.415Z,1009.09
2018-04-16T08:35:28.227Z,1009.08
2018-04-16T08:36:28.257Z,1009.05
2018-04-16T08:37:28.259Z,1009.05
2018-04-16T08:38:28.281Z,1009.06
2018-04-16T08:39:28.292Z,1009.08
2018-04-16T08:40:28.310Z,1009.14
2018-04-16T08:41:28.333Z,1009.13
2018-04-16T08:42:28.368Z,1009.12
2018-04-16T08:43:28.373Z,1009.16
2018-04-16T08:44:28.388Z,1009.17
2018-04-16T08:45:28.397Z,1009.23
2018-04-16T08:46:28.415Z,1009.23
2018-04-16T08:47:28.430Z,1009.20
2018-04-16T08:48:28.466Z,1009.24
2018-04-16T08:49:28.468Z,1009.21
2018-04-16T08:50:28.482Z,1009.25
2018-04-16T08:51:29.096Z,1009.21
2018-04-16T08:52:28.526Z,1009.23
2018-04-16T08:53:28.544Z,1009.23
2018-04-16T08:54:28.648Z,1009.26
2018-04-16T08:55:28.565Z,1009.20
2018-04-16T08:56:28.591Z,1009.24
2018-04-16T08:57:28.603Z,1009.27
2018-04-16T08:58:28.622Z,1009.26
2018-04-16T08:59:28.637Z,1009.25
2018-04-16T09:00:28.652Z,1009.29
2018-04-16T09:01:28.707Z,1009.33
2018-04-16T09:02:28.686Z,1009.30
2018-04-16T09:03:28.730Z,1009.28
2018-04-16T09:04:28.733Z,1009.33
2018-04-16T09:05:28.740Z,1009.37
2018-04-16T09:06:28.756Z,1009.37
2018-04-16T09:07:28.774Z,1009.40
2018-04-16T09:08:28.802Z,1009.39
2018-04-16T09:09:28.810Z,1009.39
2018-04-16T09:10:28.828Z,1009.38
2018-04-16T09:11:28.853Z,1009.35
2018-04-16T09:12:28.866Z,1009.41
2018-04-16T09:13:28.878Z,1009.48
2018-04-16T09:14:28.894Z,1009.44
2018-04-16T09:15:28.917Z,1009.47
2018-04-16T09:16:28.941Z,1009.42
2018-04-16T09:17:28.949Z,1009.42
2018-04-16T09:18:28.965Z,1009.46
2018-04-16T09:19:29.022Z,1009.40
2018-04-16T09:20:29.004Z,1009.42
2018-04-16T09:21:29.023Z,1009.46
2018-04-16T09:22:29.036Z,1009.43
2018-04-16T09:23:29.053Z,1009.47
2018-04-16T09:24:29.078Z,1009.46
2018-04-16T09:25:29.095Z,1009.48
2018-04-16T09:26:29.113Z,1009.49
2018-04-16T09:27:29.126Z,1009.50
2018-04-16T09:28:29.144Z,1009.52
2018-04-16T09:29:29.159Z,1009.50
2018-04-16T09:30:29.176Z,1009.50
2018-04-16T09:31:29.194Z,1009.51
2018-04-16T09:32:29.210Z,1009.53
2018-04-16T09:33:29.248Z,1009.55
2018-04-16T09:34:29.248Z,1009.55
2018-04-16T09:35:29.264Z,1009.55
2018-04-16T09:36:29.281Z,1009.56
2018-04-16T09:37:29.297Z,1009.59
2018-04-16T09:38:29.314Z,1009.60
2018-04-16T09:39:29.330Z,1009.66
2018-04-16T09:40:29.352Z,1009.59
2018-04-16T09:41:29.366Z,1009.58
2018-04-16T09:42:29.387Z,1009.59
2018-04-16T09:43:29.410Z,1009.64
2018-04-16T09:44:29.427Z,1009.67
2018-04-16T09:45:29.441Z,1009.61
2018-04-16T09:46:29.461Z,1009.59
2018-04-16T09:47:29.470Z,1009.64
2018-04-16T09:48:29.488Z,1009.64
2018-04-16T09:49:29.509Z,1009.63
2018-04-16T09:50:29.530Z,1009.62
2018-04-16T09:51:29.538Z,1009.61
2018-04-16T09:52:29.559Z,1009.57
2018-04-16T09:53:29.572Z,1009.61
2018-04-16T09:54:29.589Z,1009.67
2018-04-16T09:55:29.611Z,1009.66
2018-04-16T09:56:29.637Z,1009.66
2018-04-16T09:57:29.643Z,1009.63
2018-04-16T09:58:29.673Z,1009.61
2018-04-16T09:59:29.685Z,1009.63
2018-04-16T10:00:29.701Z,1009.67
2018-04-16T10:01:29.723Z,1009.68
2018-04-16T10:02:29.729Z,1009.74
2018-04-16T10:03:29.765Z,1009.71
2018-04-16T10:05:29.776Z,1009.69
2018-04-16T10:06:29.952Z,1009.69
2018-04-16T10:07:29.942Z,1009.72
2018-04-16T10:08:29.857Z,1009.73
2018-04-16T10:10:29.863Z,1009.72
2018-04-16T10:11:29.880Z,1009.76
2018-04-16T10:12:29.905Z,1009.73
2018-04-16T10:13:29.917Z,1009.77
2018-04-16T10:14:29.939Z,1009.72
2018-04-16T10:15:30.403Z,1009.76
2018-04-16T10:16:29.968Z,1009.68
2018-04-16T10:17:29.998Z,1009.74
2018-04-16T10:18:30.018Z,1009.77
2018-04-16T10:19:30.027Z,1009.73
2018-04-16T10:20:30.038Z,1009.72
2018-04-16T10:21:30.067Z,1009.74
2018-04-16T10:22:30.072Z,1009.65
2018-04-16T10:23:30.094Z,1009.75
2018-04-16T10:24:30.108Z,1009.74
2018-04-16T10:25:30.131Z,1009.77
2018-04-16T10:26:30.152Z,1009.80
2018-04-16T10:27:30.166Z,1009.84
2018-04-16T10:28:30.180Z,1009.77
2018-04-16T10:29:30.199Z,1009.71
2018-04-16T10:30:30.218Z,1009.75
2018-04-16T10:31:30.245Z,1009.67
2018-04-16T10:32:30.407Z,1009.69
2018-04-16T10:33:30.269Z,1009.77
2018-04-16T10:34:30.296Z,1009.71
2018-04-16T10:35:30.304Z,1009.73
2018-04-16T10:36:30.351Z,1009.78
2018-04-16T10:37:30.358Z,1009.72
2018-04-16T10:38:30.373Z,1009.74
2018-04-16T10:39:30.377Z,1009.69
2018-04-16T10:40:30.457Z,1009.69
2018-04-16T10:41:30.427Z,1009.68
2018-04-16T10:42:30.431Z,1009.69
2018-04-16T10:43:30.455Z,1009.73
2018-04-16T10:44:30.469Z,1009.69
2018-04-16T10:45:30.586Z,1009.76
2018-04-16T10:46:30.505Z,1009.78
2018-04-16T10:47:30.523Z,1009.72
2018-04-16T10:48:30.553Z,1009.71
2018-04-16T10:49:30.594Z,1009.72
2018-04-16T10:50:30.615Z,1009.71
2018-04-16T10:51:30.600Z,1009.69
2018-04-16T10:52:30.614Z,1009.61
2018-04-16T10:53:30.632Z,1009.72
2018-04-16T10:54:31.371Z,1009.69
2018-04-16T10:55:31.655Z,1009.77
2018-04-16T10:56:30.691Z,1009.79
2018-04-16T10:57:30.808Z,1009.75
2018-04-16T10:58:30.974Z,1009.80
2018-04-16T10:59:31.018Z,1009.82
2018-04-16T11:00:30.808Z,1009.81
2018-04-16T11:01:30.789Z,1009.83
2018-04-16T11:02:30.807Z,1009.79
2018-04-16T11:03:30.812Z,1009.82
2018-04-16T11:04:30.831Z,1009.80
2018-04-16T11:05:30.854Z,1009.80
2018-04-16T11:06:30.870Z,1009.83
2018-04-16T11:07:30.887Z,1009.82
2018-04-16T11:08:30.904Z,1009.82
2018-04-16T11:09:30.925Z,1009.87
2018-04-16T11:10:30.939Z,1009.90
2018-04-16T11:11:30.956Z,1009.87
2018-04-16T11:12:30.977Z,1009.87
2018-04-16T11:13:30.992Z,1009.87
2018-04-16T11:14:31.009Z,1009.93
2018-04-16T11:15:31.028Z,1009.85
2018-04-16T11:16:31.047Z,1009.85
2018-04-16T11:17:31.061Z,1009.85
2018-04-16T11:18:31.078Z,1009.83
2018-04-16T11:19:31.102Z,1009.82
2018-04-16T11:20:31.127Z,1009.83
2018-04-16T11:21:31.148Z,1009.81
2018-04-16T11:22:31.153Z,1009.80
2018-04-16T11:23:31.173Z,1009.88
2018-04-16T11:24:31.196Z,1009.91
2018-04-16T11:25:31.219Z,1009.94
2018-04-16T11:26:31.265Z,1009.89
2018-04-16T11:27:31.256Z,1009.93
2018-04-16T11:28:31.262Z,1009.95
2018-04-16T11:29:31.276Z,1009.96
2018-04-16T11:30:31.301Z,1009.96
2018-04-16T11:31:31.308Z,1009.95
2018-04-16T11:32:31.330Z,1009.96
2018-04-16T11:33:31.351Z,1009.90
2018-04-16T11:34:31.371Z,1009.95
2018-04-16T11:35:31.439Z,1009.95
2018-04-16T11:36:31.405Z,1009.99
2018-04-16T11:37:31.428Z,1010.01
2018-04-16T11:38:31.577Z,1010.00
2018-04-16T11:39:31.454Z,1010.02
2018-04-16T11:40:31.482Z,1010.00
2018-04-16T11:41:31.503Z,1010.01
2018-04-16T11:42:31.869Z,1010.05
2018-04-16T11:43:31.526Z,1010.02
2018-04-16T11:44:31.543Z,1010.01
2018-04-16T11:45:31.607Z,1010.08
2018-04-16T11:46:31.591Z,1010.07
2018-04-16T11:47:31.597Z,1009.99
2018-04-16T11:48:31.624Z,1010.08
2018-04-16T11:49:31.634Z,1010.10
2018-04-16T11:50:31.652Z,1010.05
2018-04-16T11:51:31.667Z,1010.02
2018-04-16T11:52:31.691Z,1010.13
2018-04-16T11:53:31.713Z,1010.08
2018-04-16T11:54:31.747Z,1010.12
2018-04-16T11:55:31.749Z,1010.12
2018-04-16T11:56:31.760Z,1010.10
2018-04-16T11:57:31.887Z,1010.15
2018-04-16T11:58:31.796Z,1010.12
2018-04-16T11:59:31.818Z,1010.14
2018-04-16T12:00:31.841Z,1010.11
2018-04-16T12:01:31.871Z,1010.11
2018-04-16T12:02:31.874Z,1010.06
2018-04-16T12:03:32.120Z,1010.03
2018-04-16T12:04:32.013Z,1010.03
2018-04-16T12:05:32.205Z,1010.05
2018-04-16T12:06:31.944Z,1010.09
2018-04-16T12:07:31.966Z,1010.18
2018-04-16T12:08:31.980Z,1010.17
2018-04-16T12:09:31.998Z,1010.20